Oxnard, California
Current Conditions -  °F | °C
As of 3:51 AM on Thursday 23 Oct 2014 (Local Time) from KOXR Reporting Station
Clear Clear  
Wind Chill: 63°   Ceiling: Unl
Heat Index: 63°   Visibility: 10mi
Dew Point: 46°   Wind: 3mph
Humidity: 54%   Direction: 100°E
Pressure: 29.92"   Gusts: NA
Location:  34.2°N, 119.18°W
Report Text: KOXR 231051Z AUTO 10003KT 10SM CLR 17/08 A2992 RMK AO2 SLP132 T01720078
Loading
Personal Weather Stations






























Interactive Weather Map New forecast layout! Learn more

10-Day Weather Forecast

Advertisements
Track Severe Weather on mobile